sensor_id;sensor_type;location;lat;lon;timestamp;temperature;humidity
64718;DHT22;62506;46.070;14.492;2022-10-16T00:00:28;22.80;69.00
64718;DHT22;62506;46.070;14.492;2022-10-16T00:02:54;22.80;69.10
64718;DHT22;62506;46.070;14.492;2022-10-16T00:05:20;22.80;69.10
64718;DHT22;62506;46.070;14.492;2022-10-16T00:07:46;22.80;69.10
64718;DHT22;62506;46.070;14.492;2022-10-16T00:10:11;22.80;69.00
64718;DHT22;62506;46.070;14.492;2022-10-16T00:12:37;22.80;69.00
64718;DHT22;62506;46.070;14.492;2022-10-16T00:15:02;22.80;69.10
64718;DHT22;62506;46.070;14.492;2022-10-16T00:17:29;22.80;69.10
64718;DHT22;62506;46.070;14.492;2022-10-16T00:19:54;22.80;69.10
64718;DHT22;62506;46.070;14.492;2022-10-16T00:22:19;22.80;69.10
64718;DHT22;62506;46.070;14.492;2022-10-16T00:24:45;22.80;69.10
64718;DHT22;62506;46.070;14.492;2022-10-16T00:27:10;22.80;69.10
64718;DHT22;62506;46.070;14.492;2022-10-16T00:29:36;22.80;69.10
64718;DHT22;62506;46.070;14.492;2022-10-16T00:32:01;22.80;69.10
64718;DHT22;62506;46.070;14.492;2022-10-16T00:34:27;22.80;69.10
64718;DHT22;62506;46.070;14.492;2022-10-16T00:36:52;22.80;69.00
64718;DHT22;62506;46.070;14.492;2022-10-16T00:39:18;22.80;69.20
64718;DHT22;62506;46.070;14.492;2022-10-16T00:41:44;22.80;69.00
64718;DHT22;62506;46.070;14.492;2022-10-16T00:46:54;22.70;69.00
64718;DHT22;62506;46.070;14.492;2022-10-16T00:49:20;22.70;69.10
64718;DHT22;62506;46.070;14.492;2022-10-16T00:51:46;22.70;69.10
64718;DHT22;62506;46.070;14.492;2022-10-16T00:54:23;22.70;69.20
64718;DHT22;62506;46.070;14.492;2022-10-16T00:56:49;22.70;69.20
64718;DHT22;62506;46.070;14.492;2022-10-16T00:59:37;22.70;69.30
64718;DHT22;62506;46.070;14.492;2022-10-16T01:02:01;22.70;69.30
64718;DHT22;62506;46.070;14.492;2022-10-16T01:04:28;22.70;69.50
64718;DHT22;62506;46.070;14.492;2022-10-16T01:09:26;22.70;69.30
64718;DHT22;62506;46.070;14.492;2022-10-16T01:12:01;22.70;69.40
64718;DHT22;62506;46.070;14.492;2022-10-16T01:17:42;22.60;69.40
64718;DHT22;62506;46.070;14.492;2022-10-16T01:25:05;22.60;69.60
64718;DHT22;62506;46.070;14.492;2022-10-16T01:27:33;22.60;70.20
64718;DHT22;62506;46.070;14.492;2022-10-16T01:30:02;22.60;69.60
64718;DHT22;62506;46.070;14.492;2022-10-16T01:37:51;22.60;69.70
64718;DHT22;62506;46.070;14.492;2022-10-16T01:40:19;22.60;69.60
64718;DHT22;62506;46.070;14.492;2022-10-16T01:42:46;22.60;69.70
64718;DHT22;62506;46.070;14.492;2022-10-16T01:45:13;22.60;69.60
64718;DHT22;62506;46.070;14.492;2022-10-16T01:47:40;22.60;69.50
64718;DHT22;62506;46.070;14.492;2022-10-16T01:50:06;22.60;69.40
64718;DHT22;62506;46.070;14.492;2022-10-16T01:52:34;22.60;69.40
64718;DHT22;62506;46.070;14.492;2022-10-16T01:55:00;22.60;69.40
64718;DHT22;62506;46.070;14.492;2022-10-16T01:57:27;22.60;69.20
64718;DHT22;62506;46.070;14.492;2022-10-16T01:59:54;22.60;69.20
64718;DHT22;62506;46.070;14.492;2022-10-16T02:02:24;22.70;69.30
64718;DHT22;62506;46.070;14.492;2022-10-16T02:04:53;22.70;69.20
64718;DHT22;62506;46.070;14.492;2022-10-16T02:07:19;22.70;69.30
64718;DHT22;62506;46.070;14.492;2022-10-16T02:09:45;22.70;69.30
64718;DHT22;62506;46.070;14.492;2022-10-16T02:12:15;22.60;69.20
64718;DHT22;62506;46.070;14.492;2022-10-16T02:14:44;22.70;69.30
64718;DHT22;62506;46.070;14.492;2022-10-16T02:17:14;22.60;69.30
64718;DHT22;62506;46.070;14.492;2022-10-16T02:19:40;22.60;69.40
64718;DHT22;62506;46.070;14.492;2022-10-16T02:22:07;22.60;69.40
64718;DHT22;62506;46.070;14.492;2022-10-16T02:27:01;22.60;69.50
64718;DHT22;62506;46.070;14.492;2022-10-16T02:29:27;22.60;69.60
64718;DHT22;62506;46.070;14.492;2022-10-16T02:31:55;22.60;69.60
64718;DHT22;62506;46.070;14.492;2022-10-16T02:34:21;22.60;69.60
64718;DHT22;62506;46.070;14.492;2022-10-16T02:36:49;22.60;69.50
64718;DHT22;62506;46.070;14.492;2022-10-16T02:39:15;22.60;69.50
64718;DHT22;62506;46.070;14.492;2022-10-16T02:41:41;22.60;69.50
64718;DHT22;62506;46.070;14.492;2022-10-16T02:44:07;22.60;69.40
64718;DHT22;62506;46.070;14.492;2022-10-16T02:46:33;22.60;69.30
64718;DHT22;62506;46.070;14.492;2022-10-16T02:48:58;22.60;69.30
64718;DHT22;62506;46.070;14.492;2022-10-16T02:51:24;22.60;69.30
64718;DHT22;62506;46.070;14.492;2022-10-16T02:53:49;22.60;69.30
64718;DHT22;62506;46.070;14.492;2022-10-16T02:56:15;22.60;69.30
64718;DHT22;62506;46.070;14.492;2022-10-16T02:58:40;22.60;69.30
64718;DHT22;62506;46.070;14.492;2022-10-16T03:01:06;22.60;69.20
64718;DHT22;62506;46.070;14.492;2022-10-16T03:03:31;22.60;69.20
64718;DHT22;62506;46.070;14.492;2022-10-16T03:05:57;22.60;69.20
64718;DHT22;62506;46.070;14.492;2022-10-16T03:08:22;22.60;69.20
64718;DHT22;62506;46.070;14.492;2022-10-16T03:10:50;22.60;69.10
64718;DHT22;62506;46.070;14.492;2022-10-16T03:13:16;22.60;69.10
64718;DHT22;62506;46.070;14.492;2022-10-16T03:15:41;22.60;69.10
64718;DHT22;62506;46.070;14.492;2022-10-16T03:18:07;22.60;69.10
64718;DHT22;62506;46.070;14.492;2022-10-16T03:20:33;22.60;69.00
64718;DHT22;62506;46.070;14.492;2022-10-16T03:22:58;22.60;69.00
64718;DHT22;62506;46.070;14.492;2022-10-16T03:25:24;22.60;69.00
64718;DHT22;62506;46.070;14.492;2022-10-16T03:27:49;22.60;69.10
64718;DHT22;62506;46.070;14.492;2022-10-16T03:30:15;22.60;69.00
64718;DHT22;62506;46.070;14.492;2022-10-16T03:32:41;22.60;69.00
64718;DHT22;62506;46.070;14.492;2022-10-16T03:35:07;22.60;69.00
64718;DHT22;62506;46.070;14.492;2022-10-16T03:37:32;22.60;69.00
64718;DHT22;62506;46.070;14.492;2022-10-16T03:39:58;22.60;69.00
64718;DHT22;62506;46.070;14.492;2022-10-16T03:42:24;22.60;69.10
64718;DHT22;62506;46.070;14.492;2022-10-16T03:44:49;22.60;69.40
64718;DHT22;62506;46.070;14.492;2022-10-16T03:47:15;22.60;69.10
64718;DHT22;62506;46.070;14.492;2022-10-16T03:49:41;22.50;69.10
64718;DHT22;62506;46.070;14.492;2022-10-16T03:52:06;22.50;69.20
64718;DHT22;62506;46.070;14.492;2022-10-16T03:54:32;22.50;69.20
64718;DHT22;62506;46.070;14.492;2022-10-16T03:56:57;22.50;69.40
64718;DHT22;62506;46.070;14.492;2022-10-16T03:59:23;22.50;69.30
64718;DHT22;62506;46.070;14.492;2022-10-16T04:01:48;22.50;69.30
64718;DHT22;62506;46.070;14.492;2022-10-16T04:04:14;22.50;69.30
64718;DHT22;62506;46.070;14.492;2022-10-16T04:06:39;22.50;69.20
64718;DHT22;62506;46.070;14.492;2022-10-16T04:09:05;22.50;69.50
64718;DHT22;62506;46.070;14.492;2022-10-16T04:11:30;22.50;69.30
64718;DHT22;62506;46.070;14.492;2022-10-16T04:13:56;22.50;69.20
64718;DHT22;62506;46.070;14.492;2022-10-16T04:16:21;22.50;69.20
64718;DHT22;62506;46.070;14.492;2022-10-16T04:18:47;22.50;69.20
64718;DHT22;62506;46.070;14.492;2022-10-16T04:21:12;22.50;69.20
64718;DHT22;62506;46.070;14.492;2022-10-16T04:23:38;22.50;69.30
64718;DHT22;62506;46.070;14.492;2022-10-16T04:26:03;22.50;69.20
64718;DHT22;62506;46.070;14.492;2022-10-16T04:28:29;22.50;69.20
64718;DHT22;62506;46.070;14.492;2022-10-16T04:30:54;22.50;69.30
64718;DHT22;62506;46.070;14.492;2022-10-16T04:33:20;22.50;69.20
64718;DHT22;62506;46.070;14.492;2022-10-16T04:35:45;22.50;69.30
64718;DHT22;62506;46.070;14.492;2022-10-16T04:38:11;22.50;69.20
64718;DHT22;62506;46.070;14.492;2022-10-16T04:40:36;22.50;69.10
64718;DHT22;62506;46.070;14.492;2022-10-16T04:43:03;22.50;69.20
64718;DHT22;62506;46.070;14.492;2022-10-16T04:45:28;22.50;69.10
64718;DHT22;62506;46.070;14.492;2022-10-16T04:47:57;22.50;69.00
64718;DHT22;62506;46.070;14.492;2022-10-16T04:50:23;22.50;69.10
64718;DHT22;62506;46.070;14.492;2022-10-16T04:52:48;22.50;69.00
64718;DHT22;62506;46.070;14.492;2022-10-16T04:55:14;22.50;69.00
64718;DHT22;62506;46.070;14.492;2022-10-16T04:57:40;22.50;69.00
64718;DHT22;62506;46.070;14.492;2022-10-16T05:00:05;22.50;69.00
64718;DHT22;62506;46.070;14.492;2022-10-16T05:02:31;22.50;69.00
64718;DHT22;62506;46.070;14.492;2022-10-16T05:04:57;22.50;69.00
64718;DHT22;62506;46.070;14.492;2022-10-16T05:07:22;22.50;69.20
64718;DHT22;62506;46.070;14.492;2022-10-16T05:09:48;22.50;69.00
64718;DHT22;62506;46.070;14.492;2022-10-16T05:12:13;22.50;69.00
64718;DHT22;62506;46.070;14.492;2022-10-16T05:14:39;22.50;69.10
64718;DHT22;62506;46.070;14.492;2022-10-16T05:17:04;22.50;69.10
64718;DHT22;62506;46.070;14.492;2022-10-16T05:19:30;22.50;69.10
64718;DHT22;62506;46.070;14.492;2022-10-16T05:21:55;22.50;69.00
64718;DHT22;62506;46.070;14.492;2022-10-16T05:24:20;22.50;69.10
64718;DHT22;62506;46.070;14.492;2022-10-16T05:26:46;22.50;69.60
64718;DHT22;62506;46.070;14.492;2022-10-16T05:29:11;22.50;69.70
64718;DHT22;62506;46.070;14.492;2022-10-16T05:31:37;22.50;69.60
64718;DHT22;62506;46.070;14.492;2022-10-16T05:34:02;22.50;70.00
64718;DHT22;62506;46.070;14.492;2022-10-16T05:36:28;22.50;70.00
64718;DHT22;62506;46.070;14.492;2022-10-16T05:38:54;22.60;70.50
64718;DHT22;62506;46.070;14.492;2022-10-16T05:41:19;22.40;64.60
64718;DHT22;62506;46.070;14.492;2022-10-16T05:43:47;22.40;67.80
64718;DHT22;62506;46.070;14.492;2022-10-16T05:46:12;22.40;68.00
64718;DHT22;62506;46.070;14.492;2022-10-16T05:48:38;22.50;68.90
64718;DHT22;62506;46.070;14.492;2022-10-16T05:51:05;22.50;69.20
64718;DHT22;62506;46.070;14.492;2022-10-16T05:53:32;22.50;69.60
64718;DHT22;62506;46.070;14.492;2022-10-16T05:55:58;22.60;70.00
64718;DHT22;62506;46.070;14.492;2022-10-16T05:58:24;22.60;70.40
64718;DHT22;62506;46.070;14.492;2022-10-16T06:00:54;22.60;69.90
64718;DHT22;62506;46.070;14.492;2022-10-16T06:03:19;22.60;69.90
64718;DHT22;62506;46.070;14.492;2022-10-16T06:05:45;22.60;69.70
64718;DHT22;62506;46.070;14.492;2022-10-16T06:08:10;22.60;69.90
64718;DHT22;62506;46.070;14.492;2022-10-16T06:10:36;22.70;70.00
64718;DHT22;62506;46.070;14.492;2022-10-16T06:13:03;22.70;69.50
64718;DHT22;62506;46.070;14.492;2022-10-16T06:18:34;22.80;69.60
64718;DHT22;62506;46.070;14.492;2022-10-16T06:21:06;22.80;69.20
64718;DHT22;62506;46.070;14.492;2022-10-16T06:23:32;22.80;69.30
64718;DHT22;62506;46.070;14.492;2022-10-16T06:26:04;22.80;69.90
64718;DHT22;62506;46.070;14.492;2022-10-16T06:28:29;22.80;69.50
64718;DHT22;62506;46.070;14.492;2022-10-16T06:31:01;22.90;69.00
64718;DHT22;62506;46.070;14.492;2022-10-16T06:33:27;22.90;69.00
64718;DHT22;62506;46.070;14.492;2022-10-16T06:35:53;22.90;69.10
64718;DHT22;62506;46.070;14.492;2022-10-16T06:38:18;22.90;69.00
64718;DHT22;62506;46.070;14.492;2022-10-16T06:40:44;22.90;69.00
64718;DHT22;62506;46.070;14.492;2022-10-16T06:43:09;22.90;68.90
64718;DHT22;62506;46.070;14.492;2022-10-16T06:45:35;22.90;68.80
64718;DHT22;62506;46.070;14.492;2022-10-16T06:48:01;22.90;68.20
64718;DHT22;62506;46.070;14.492;2022-10-16T07:06:45;22.90;68.90
64718;DHT22;62506;46.070;14.492;2022-10-16T07:09:32;22.90;68.70
64718;DHT22;62506;46.070;14.492;2022-10-16T07:25:14;22.80;67.80
64718;DHT22;62506;46.070;14.492;2022-10-16T07:27:46;22.80;67.30
64718;DHT22;62506;46.070;14.492;2022-10-16T07:30:34;22.80;68.10
64718;DHT22;62506;46.070;14.492;2022-10-16T07:33:33;22.90;68.60
64718;DHT22;62506;46.070;14.492;2022-10-16T07:52:17;23.00;68.60
64718;DHT22;62506;46.070;14.492;2022-10-16T07:54:43;23.00;68.60
64718;DHT22;62506;46.070;14.492;2022-10-16T07:57:08;23.10;69.30
64718;DHT22;62506;46.070;14.492;2022-10-16T07:59:54;23.10;68.50
64718;DHT22;62506;46.070;14.492;2022-10-16T08:02:21;23.10;68.50
64718;DHT22;62506;46.070;14.492;2022-10-16T08:04:50;23.00;68.60
64718;DHT22;62506;46.070;14.492;2022-10-16T08:07:37;23.10;68.80
64718;DHT22;62506;46.070;14.492;2022-10-16T08:10:26;23.00;68.10
64718;DHT22;62506;46.070;14.492;2022-10-16T08:13:11;23.10;68.30
64718;DHT22;62506;46.070;14.492;2022-10-16T08:20:57;23.10;66.30
64718;DHT22;62506;46.070;14.492;2022-10-16T08:23:24;23.10;68.90
64718;DHT22;62506;46.070;14.492;2022-10-16T08:26:13;23.00;73.00
64718;DHT22;62506;46.070;14.492;2022-10-16T08:28:40;23.00;72.60
64718;DHT22;62506;46.070;14.492;2022-10-16T08:31:07;22.90;68.90
64718;DHT22;62506;46.070;14.492;2022-10-16T08:33:33;22.80;65.00
64718;DHT22;62506;46.070;14.492;2022-10-16T08:36:00;22.60;62.30
64718;DHT22;62506;46.070;14.492;2022-10-16T08:38:49;22.30;61.30
64718;DHT22;62506;46.070;14.492;2022-10-16T08:47:20;22.60;65.90
64718;DHT22;62506;46.070;14.492;2022-10-16T08:50:10;22.70;66.60
64718;DHT22;62506;46.070;14.492;2022-10-16T08:52:38;22.70;66.70
64718;DHT22;62506;46.070;14.492;2022-10-16T08:55:34;22.80;66.20
64718;DHT22;62506;46.070;14.492;2022-10-16T08:58:17;22.80;66.20
64718;DHT22;62506;46.070;14.492;2022-10-16T09:00:43;22.80;66.20
64718;DHT22;62506;46.070;14.492;2022-10-16T09:11:07;22.80;64.90
64718;DHT22;62506;46.070;14.492;2022-10-16T09:34:34;23.10;67.10
64718;DHT22;62506;46.070;14.492;2022-10-16T09:37:03;23.20;67.20
64718;DHT22;62506;46.070;14.492;2022-10-16T09:39:29;23.10;67.00
64718;DHT22;62506;46.070;14.492;2022-10-16T09:41:55;23.10;66.50
64718;DHT22;62506;46.070;14.492;2022-10-16T09:46:47;23.20;67.00
64718;DHT22;62506;46.070;14.492;2022-10-16T09:49:20;23.20;66.90
64718;DHT22;62506;46.070;14.492;2022-10-16T09:51:47;23.20;67.20
64718;DHT22;62506;46.070;14.492;2022-10-16T09:54:14;23.20;66.20
64718;DHT22;62506;46.070;14.492;2022-10-16T09:56:43;23.20;66.60
64718;DHT22;62506;46.070;14.492;2022-10-16T09:59:54;23.20;66.80
64718;DHT22;62506;46.070;14.492;2022-10-16T10:02:57;23.20;66.80
64718;DHT22;62506;46.070;14.492;2022-10-16T10:09:19;23.20;67.10
64718;DHT22;62506;46.070;14.492;2022-10-16T10:22:46;23.30;67.20
64718;DHT22;62506;46.070;14.492;2022-10-16T12:32:36;23.50;69.40
64718;DHT22;62506;46.070;14.492;2022-10-16T12:40:23;23.50;69.20
64718;DHT22;62506;46.070;14.492;2022-10-16T12:48:42;23.50;68.90
64718;DHT22;62506;46.070;14.492;2022-10-16T13:14:42;23.60;69.20
64718;DHT22;62506;46.070;14.492;2022-10-16T13:17:05;23.60;69.20
64718;DHT22;62506;46.070;14.492;2022-10-16T13:23:13;23.60;69.80
64718;DHT22;62506;46.070;14.492;2022-10-16T13:49:12;23.50;70.50
64718;DHT22;62506;46.070;14.492;2022-10-16T13:51:38;23.50;70.50
64718;DHT22;62506;46.070;14.492;2022-10-16T13:54:03;23.60;70.30
64718;DHT22;62506;46.070;14.492;2022-10-16T13:56:34;23.60;70.80
64718;DHT22;62506;46.070;14.492;2022-10-16T13:59:25;23.50;69.90
64718;DHT22;62506;46.070;14.492;2022-10-16T14:01:57;23.50;66.80
64718;DHT22;62506;46.070;14.492;2022-10-16T14:04:24;23.50;66.00
64718;DHT22;62506;46.070;14.492;2022-10-16T14:06:51;23.50;68.00
64718;DHT22;62506;46.070;14.492;2022-10-16T14:09:26;23.60;69.20
64718;DHT22;62506;46.070;14.492;2022-10-16T14:12:03;23.50;69.10
64718;DHT22;62506;46.070;14.492;2022-10-16T14:14:34;23.60;69.20
64718;DHT22;62506;46.070;14.492;2022-10-16T14:17:02;23.60;69.40
64718;DHT22;62506;46.070;14.492;2022-10-16T14:19:28;23.60;69.70
64718;DHT22;62506;46.070;14.492;2022-10-16T14:21:54;23.60;69.70
64718;DHT22;62506;46.070;14.492;2022-10-16T14:24:31;23.50;69.50
64718;DHT22;62506;46.070;14.492;2022-10-16T14:26:59;23.50;69.70
64718;DHT22;62506;46.070;14.492;2022-10-16T14:29:26;23.50;69.90
64718;DHT22;62506;46.070;14.492;2022-10-16T14:34:25;23.50;70.20
64718;DHT22;62506;46.070;14.492;2022-10-16T14:37:30;23.50;70.20
64718;DHT22;62506;46.070;14.492;2022-10-16T14:40:15;23.40;70.20
64718;DHT22;62506;46.070;14.492;2022-10-16T14:43:22;23.40;67.00
64718;DHT22;62506;46.070;14.492;2022-10-16T14:45:50;23.30;61.60
64718;DHT22;62506;46.070;14.492;2022-10-16T14:48:17;23.20;60.60
64718;DHT22;62506;46.070;14.492;2022-10-16T14:51:02;23.30;62.40
64718;DHT22;62506;46.070;14.492;2022-10-16T14:53:37;23.30;63.30
64718;DHT22;62506;46.070;14.492;2022-10-16T14:56:14;23.40;65.70
64718;DHT22;62506;46.070;14.492;2022-10-16T14:59:00;23.40;66.20
64718;DHT22;62506;46.070;14.492;2022-10-16T15:01:26;23.40;66.50
64718;DHT22;62506;46.070;14.492;2022-10-16T15:06:29;23.40;66.90
64718;DHT22;62506;46.070;14.492;2022-10-16T15:08:55;23.40;67.00
64718;DHT22;62506;46.070;14.492;2022-10-16T15:11:22;23.40;67.20
64718;DHT22;62506;46.070;14.492;2022-10-16T15:13:48;23.50;67.30
64718;DHT22;62506;46.070;14.492;2022-10-16T15:16:14;23.50;67.50
64718;DHT22;62506;46.070;14.492;2022-10-16T15:18:40;23.50;67.60
64718;DHT22;62506;46.070;14.492;2022-10-16T15:21:29;23.40;67.50
64718;DHT22;62506;46.070;14.492;2022-10-16T15:23:55;23.50;67.80
64718;DHT22;62506;46.070;14.492;2022-10-16T15:26:24;23.50;67.80
64718;DHT22;62506;46.070;14.492;2022-10-16T15:29:12;23.50;67.80
64718;DHT22;62506;46.070;14.492;2022-10-16T15:31:38;23.50;67.80
64718;DHT22;62506;46.070;14.492;2022-10-16T15:36:43;23.50;68.00
64718;DHT22;62506;46.070;14.492;2022-10-16T15:39:51;23.50;68.10
64718;DHT22;62506;46.070;14.492;2022-10-16T15:47:55;23.50;68.50
64718;DHT22;62506;46.070;14.492;2022-10-16T15:50:23;23.50;68.30
64718;DHT22;62506;46.070;14.492;2022-10-16T15:52:49;23.50;68.20
64718;DHT22;62506;46.070;14.492;2022-10-16T15:55:15;23.50;68.30
64718;DHT22;62506;46.070;14.492;2022-10-16T15:57:46;23.50;68.30
64718;DHT22;62506;46.070;14.492;2022-10-16T16:00:14;23.50;68.30
64718;DHT22;62506;46.070;14.492;2022-10-16T16:02:41;23.50;68.50
64718;DHT22;62506;46.070;14.492;2022-10-16T16:05:09;23.50;68.60
64718;DHT22;62506;46.070;14.492;2022-10-16T16:07:36;23.50;68.50
64718;DHT22;62506;46.070;14.492;2022-10-16T16:25:33;23.50;69.00
64718;DHT22;62506;46.070;14.492;2022-10-16T16:33:10;23.50;68.50
64718;DHT22;62506;46.070;14.492;2022-10-16T16:35:58;23.40;68.70
64718;DHT22;62506;46.070;14.492;2022-10-16T16:38:28;23.40;68.80
64718;DHT22;62506;46.070;14.492;2022-10-16T16:46:49;23.40;68.80
64718;DHT22;62506;46.070;14.492;2022-10-16T16:49:15;23.40;68.70
64718;DHT22;62506;46.070;14.492;2022-10-16T16:52:24;23.40;68.80
64718;DHT22;62506;46.070;14.492;2022-10-16T17:21:52;23.50;68.70
64718;DHT22;62506;46.070;14.492;2022-10-16T17:25:06;23.50;68.80
64718;DHT22;62506;46.070;14.492;2022-10-16T17:27:33;23.50;68.70
64718;DHT22;62506;46.070;14.492;2022-10-16T17:29:59;23.50;68.80
64718;DHT22;62506;46.070;14.492;2022-10-16T17:32:24;23.50;68.60
64718;DHT22;62506;46.070;14.492;2022-10-16T17:34:50;23.50;68.60
64718;DHT22;62506;46.070;14.492;2022-10-16T17:37:47;23.50;68.70
64718;DHT22;62506;46.070;14.492;2022-10-16T17:40:55;23.50;68.70
64718;DHT22;62506;46.070;14.492;2022-10-16T17:48:43;23.50;68.60
64718;DHT22;62506;46.070;14.492;2022-10-16T17:51:11;23.60;68.70
64718;DHT22;62506;46.070;14.492;2022-10-16T17:53:55;23.60;68.20
64718;DHT22;62506;46.070;14.492;2022-10-16T17:57:02;23.50;67.80
64718;DHT22;62506;46.070;14.492;2022-10-16T17:59:44;23.60;68.50
64718;DHT22;62506;46.070;14.492;2022-10-16T18:02:10;23.60;68.50
64718;DHT22;62506;46.070;14.492;2022-10-16T18:04:36;23.60;68.20
64718;DHT22;62506;46.070;14.492;2022-10-16T18:07:02;23.60;68.50
64718;DHT22;62506;46.070;14.492;2022-10-16T18:10:10;23.60;68.50
64718;DHT22;62506;46.070;14.492;2022-10-16T18:12:37;23.60;68.70
64718;DHT22;62506;46.070;14.492;2022-10-16T18:15:05;23.60;68.40
64718;DHT22;62506;46.070;14.492;2022-10-16T18:17:51;23.60;68.70
64718;DHT22;62506;46.070;14.492;2022-10-16T18:20:24;23.60;68.70
64718;DHT22;62506;46.070;14.492;2022-10-16T18:23:11;23.60;68.50
64718;DHT22;62506;46.070;14.492;2022-10-16T18:25:50;23.60;68.70
64718;DHT22;62506;46.070;14.492;2022-10-16T18:28:35;23.50;68.70
64718;DHT22;62506;46.070;14.492;2022-10-16T18:31:03;23.50;68.50
64718;DHT22;62506;46.070;14.492;2022-10-16T18:33:54;23.50;68.60
64718;DHT22;62506;46.070;14.492;2022-10-16T18:36:21;23.50;68.90
64718;DHT22;62506;46.070;14.492;2022-10-16T18:38:47;23.50;68.90
64718;DHT22;62506;46.070;14.492;2022-10-16T18:41:21;23.50;68.90
64718;DHT22;62506;46.070;14.492;2022-10-16T18:44:27;23.50;68.80
64718;DHT22;62506;46.070;14.492;2022-10-16T18:47:30;23.50;69.70
64718;DHT22;62506;46.070;14.492;2022-10-16T18:49:57;23.50;68.80
64718;DHT22;62506;46.070;14.492;2022-10-16T18:52:47;23.50;68.70
64718;DHT22;62506;46.070;14.492;2022-10-16T18:55:13;23.50;68.80
64718;DHT22;62506;46.070;14.492;2022-10-16T18:57:38;23.50;68.80
64718;DHT22;62506;46.070;14.492;2022-10-16T19:00:04;23.50;68.90
64718;DHT22;62506;46.070;14.492;2022-10-16T19:02:30;23.50;69.00
64718;DHT22;62506;46.070;14.492;2022-10-16T19:04:56;23.50;69.00
64718;DHT22;62506;46.070;14.492;2022-10-16T19:07:22;23.50;68.90
64718;DHT22;62506;46.070;14.492;2022-10-16T19:10:08;23.50;68.70
64718;DHT22;62506;46.070;14.492;2022-10-16T19:12:36;23.50;68.70
64718;DHT22;62506;46.070;14.492;2022-10-16T19:15:19;23.40;68.70
64718;DHT22;62506;46.070;14.492;2022-10-16T19:17:46;23.40;67.50
64718;DHT22;62506;46.070;14.492;2022-10-16T19:20:11;23.40;68.70
64718;DHT22;62506;46.070;14.492;2022-10-16T19:22:37;23.40;68.80
64718;DHT22;62506;46.070;14.492;2022-10-16T19:25:21;23.30;68.60
64718;DHT22;62506;46.070;14.492;2022-10-16T19:27:50;23.40;68.80
64718;DHT22;62506;46.070;14.492;2022-10-16T19:30:16;23.40;69.00
64718;DHT22;62506;46.070;14.492;2022-10-16T19:32:42;23.40;69.20
64718;DHT22;62506;46.070;14.492;2022-10-16T19:35:09;23.40;69.20
64718;DHT22;62506;46.070;14.492;2022-10-16T19:37:34;23.40;69.20
64718;DHT22;62506;46.070;14.492;2022-10-16T19:40:00;23.30;68.30
64718;DHT22;62506;46.070;14.492;2022-10-16T19:42:25;23.30;68.10
64718;DHT22;62506;46.070;14.492;2022-10-16T19:44:51;23.30;68.60
64718;DHT22;62506;46.070;14.492;2022-10-16T19:47:16;23.30;68.70
64718;DHT22;62506;46.070;14.492;2022-10-16T19:49:42;23.30;69.00
64718;DHT22;62506;46.070;14.492;2022-10-16T19:52:07;23.20;68.60
64718;DHT22;62506;46.070;14.492;2022-10-16T19:54:33;23.20;68.60
64718;DHT22;62506;46.070;14.492;2022-10-16T19:57:00;23.20;68.70
64718;DHT22;62506;46.070;14.492;2022-10-16T19:59:26;23.20;68.70
64718;DHT22;62506;46.070;14.492;2022-10-16T20:01:51;23.20;68.80
64718;DHT22;62506;46.070;14.492;2022-10-16T20:04:17;23.20;68.80
64718;DHT22;62506;46.070;14.492;2022-10-16T20:06:42;23.20;68.80
64718;DHT22;62506;46.070;14.492;2022-10-16T20:09:08;23.20;68.80
64718;DHT22;62506;46.070;14.492;2022-10-16T20:11:34;23.10;68.60
64718;DHT22;62506;46.070;14.492;2022-10-16T20:14:00;23.20;68.90
64718;DHT22;62506;46.070;14.492;2022-10-16T20:16:26;23.10;68.70
64718;DHT22;62506;46.070;14.492;2022-10-16T20:18:52;23.10;68.80
64718;DHT22;62506;46.070;14.492;2022-10-16T20:21:22;23.10;68.80
64718;DHT22;62506;46.070;14.492;2022-10-16T20:23:47;23.10;68.80
64718;DHT22;62506;46.070;14.492;2022-10-16T20:26:15;23.10;68.80
64718;DHT22;62506;46.070;14.492;2022-10-16T20:28:41;23.10;68.80
64718;DHT22;62506;46.070;14.492;2022-10-16T20:31:07;23.10;68.90
64718;DHT22;62506;46.070;14.492;2022-10-16T20:33:34;23.10;69.00
64718;DHT22;62506;46.070;14.492;2022-10-16T20:35:59;23.10;69.00
64718;DHT22;62506;46.070;14.492;2022-10-16T20:38:24;23.00;69.00
64718;DHT22;62506;46.070;14.492;2022-10-16T20:40:50;23.00;69.10
64718;DHT22;62506;46.070;14.492;2022-10-16T20:43:17;23.00;69.10
64718;DHT22;62506;46.070;14.492;2022-10-16T20:45:43;23.00;69.10
64718;DHT22;62506;46.070;14.492;2022-10-16T20:48:08;23.00;69.10
64718;DHT22;62506;46.070;14.492;2022-10-16T20:50:35;23.00;69.10
64718;DHT22;62506;46.070;14.492;2022-10-16T20:53:01;23.00;69.10
64718;DHT22;62506;46.070;14.492;2022-10-16T20:55:26;23.00;69.20
64718;DHT22;62506;46.070;14.492;2022-10-16T20:57:52;22.90;69.20
64718;DHT22;62506;46.070;14.492;2022-10-16T21:00:18;23.00;69.20
64718;DHT22;62506;46.070;14.492;2022-10-16T21:02:43;22.90;69.20
64718;DHT22;62506;46.070;14.492;2022-10-16T21:05:09;22.90;69.20
64718;DHT22;62506;46.070;14.492;2022-10-16T21:07:34;22.90;69.20
64718;DHT22;62506;46.070;14.492;2022-10-16T21:10:00;22.90;69.30
64718;DHT22;62506;46.070;14.492;2022-10-16T21:12:25;22.90;69.20
64718;DHT22;62506;46.070;14.492;2022-10-16T21:14:51;22.90;69.30
64718;DHT22;62506;46.070;14.492;2022-10-16T21:17:17;22.90;69.20
64718;DHT22;62506;46.070;14.492;2022-10-16T21:19:43;22.90;69.30
64718;DHT22;62506;46.070;14.492;2022-10-16T21:22:08;22.90;69.30
64718;DHT22;62506;46.070;14.492;2022-10-16T21:24:34;22.90;69.20
64718;DHT22;62506;46.070;14.492;2022-10-16T21:27:01;22.90;69.30
64718;DHT22;62506;46.070;14.492;2022-10-16T21:29:27;22.90;69.20
64718;DHT22;62506;46.070;14.492;2022-10-16T21:31:52;22.90;69.20
64718;DHT22;62506;46.070;14.492;2022-10-16T21:34:18;22.90;69.20
64718;DHT22;62506;46.070;14.492;2022-10-16T21:36:43;22.90;69.20
64718;DHT22;62506;46.070;14.492;2022-10-16T21:39:10;22.90;69.30
64718;DHT22;62506;46.070;14.492;2022-10-16T21:41:36;22.90;69.30
64718;DHT22;62506;46.070;14.492;2022-10-16T21:44:02;22.80;69.20
64718;DHT22;62506;46.070;14.492;2022-10-16T21:46:29;22.90;69.20
64718;DHT22;62506;46.070;14.492;2022-10-16T21:48:56;22.90;69.20
64718;DHT22;62506;46.070;14.492;2022-10-16T21:51:26;22.80;69.10
64718;DHT22;62506;46.070;14.492;2022-10-16T21:53:51;22.90;69.20
64718;DHT22;62506;46.070;14.492;2022-10-16T21:56:17;22.90;69.10
64718;DHT22;62506;46.070;14.492;2022-10-16T21:58:43;22.90;69.00